createdAt,value
2022-09-01T00:01:44.209Z,20.13
2022-09-01T00:04:15.998Z,20.18
2022-09-01T00:06:43.721Z,20.18
2022-09-01T00:09:13.487Z,20.23
2022-09-01T00:11:42.273Z,20.21
2022-09-01T00:14:23.761Z,20.20
2022-09-01T00:16:57.176Z,20.24
2022-09-01T00:19:24.397Z,20.25
2022-09-01T00:21:51.046Z,20.23
2022-09-01T00:24:19.014Z,20.29
2022-09-01T00:26:46.054Z,20.37
2022-09-01T00:29:13.550Z,20.38
2022-09-01T00:31:40.458Z,20.37
2022-09-01T00:34:07.450Z,20.25
2022-09-01T00:36:34.208Z,20.17
2022-09-01T00:39:01.191Z,20.05
2022-09-01T00:41:31.040Z,20.01
2022-09-01T00:44:01.773Z,20.00
2022-09-01T00:46:49.564Z,19.95
2022-09-01T00:49:20.917Z,20.00
2022-09-01T00:51:51.036Z,20.05
2022-09-01T00:54:26.190Z,20.07
2022-09-01T00:56:57.696Z,20.10
2022-09-01T00:59:26.743Z,20.09
2022-09-01T01:01:54.778Z,20.11
2022-09-01T01:04:21.404Z,20.13
2022-09-01T01:07:02.152Z,20.13
2022-09-01T01:09:36.115Z,20.14
2022-09-01T01:12:05.429Z,20.10
2022-09-01T01:14:36.834Z,20.09
2022-09-01T01:17:03.929Z,20.13
2022-09-01T01:20:08.453Z,20.17
2022-09-01T01:23:02.233Z,20.18
2022-09-01T01:25:40.005Z,20.06
2022-09-01T01:28:14.490Z,20.01
2022-09-01T01:30:51.039Z,20.04
2022-09-01T01:33:24.017Z,20.03
2022-09-01T01:35:52.997Z,20.04
2022-09-01T01:38:22.616Z,20.04
2022-09-01T01:40:51.813Z,19.95
2022-09-01T01:43:23.018Z,19.94
2022-09-01T01:45:52.950Z,19.94
2022-09-01T01:48:24.418Z,19.98
2022-09-01T01:50:53.160Z,20.05
2022-09-01T01:53:20.953Z,20.05
2022-09-01T01:55:49.537Z,20.04
2022-09-01T01:58:19.703Z,20.05
2022-09-01T02:00:49.069Z,19.97
2022-09-01T02:03:19.848Z,19.88
2022-09-01T02:05:49.155Z,19.86
2022-09-01T02:08:20.840Z,19.81
2022-09-01T02:10:50.689Z,19.79
2022-09-01T02:13:19.549Z,19.81
2022-09-01T02:15:49.515Z,19.85
2022-09-01T02:18:19.311Z,19.81
2022-09-01T02:20:51.037Z,19.90
2022-09-01T02:23:23.388Z,19.93
2022-09-01T02:28:50.901Z,19.93
2022-09-01T02:31:22.030Z,19.91
2022-09-01T02:33:48.801Z,19.92
2022-09-01T02:36:17.757Z,19.93
2022-09-01T02:38:46.872Z,19.87
2022-09-01T02:41:21.722Z,19.77
2022-09-01T02:43:48.804Z,19.68
2022-09-01T02:46:15.688Z,19.65
2022-09-01T02:48:45.996Z,19.59
2022-09-01T02:51:17.449Z,19.48
2022-09-01T02:53:48.029Z,19.42
2022-09-01T02:56:15.403Z,19.37
2022-09-01T02:58:47.023Z,19.34
2022-09-01T03:01:21.587Z,19.24
2022-09-01T03:03:50.991Z,19.21
2022-09-01T03:06:19.790Z,19.22
2022-09-01T03:08:48.046Z,19.23
2022-09-01T03:11:15.030Z,19.17
2022-09-01T03:13:42.655Z,19.14
2022-09-01T03:16:10.419Z,19.15
2022-09-01T03:18:38.407Z,19.11
2022-09-01T03:21:08.311Z,19.12
2022-09-01T03:23:35.805Z,19.08
2022-09-01T03:26:02.863Z,19.11
2022-09-01T03:28:29.799Z,19.21
2022-09-01T03:30:58.138Z,19.17
2022-09-01T03:33:27.737Z,19.21
2022-09-01T03:35:56.926Z,19.21
2022-09-01T03:38:24.961Z,19.19
2022-09-01T03:40:58.987Z,19.28
2022-09-01T03:43:27.671Z,19.30
2022-09-01T03:46:02.166Z,19.24
2022-09-01T03:48:31.629Z,19.15
2022-09-01T03:51:03.037Z,19.13
2022-09-01T03:53:34.150Z,19.13
2022-09-01T03:56:04.077Z,19.12
2022-09-01T03:58:32.381Z,19.10
2022-09-01T04:01:02.860Z,19.14
2022-09-01T04:03:34.081Z,19.13
2022-09-01T04:06:03.153Z,19.13
2022-09-01T04:08:33.455Z,19.14
2022-09-01T04:11:05.035Z,19.10
2022-09-01T04:13:39.759Z,19.09
2022-09-01T04:16:30.235Z,19.07
2022-09-01T04:18:56.944Z,19.11
2022-09-01T04:21:24.400Z,19.14
2022-09-01T04:23:51.162Z,19.18
2022-09-01T04:26:20.377Z,19.10
2022-09-01T04:28:50.728Z,19.02
2022-09-01T04:31:20.265Z,18.96
2022-09-01T04:33:52.792Z,18.92
2022-09-01T04:36:27.466Z,18.87
2022-09-01T04:38:58.465Z,18.83
2022-09-01T04:41:31.983Z,18.79
2022-09-01T04:44:04.707Z,18.76
2022-09-01T04:46:38.004Z,18.70
2022-09-01T04:49:11.990Z,18.68
2022-09-01T04:51:45.016Z,18.67
2022-09-01T04:54:14.310Z,18.70
2022-09-01T04:56:45.162Z,18.72
2022-09-01T04:59:17.734Z,18.66
2022-09-01T05:01:50.826Z,18.58
2022-09-01T05:04:24.426Z,18.60
2022-09-01T05:07:00.980Z,18.65
2022-09-01T05:09:37.821Z,18.76
2022-09-01T05:12:23.811Z,18.76
2022-09-01T05:14:51.216Z,18.81
2022-09-01T05:17:18.984Z,18.93
2022-09-01T05:19:48.531Z,18.97
2022-09-01T05:22:16.298Z,18.99
2022-09-01T05:24:51.457Z,19.07
2022-09-01T05:27:22.794Z,19.09
2022-09-01T05:29:50.346Z,19.13
2022-09-01T05:32:17.143Z,19.17
2022-09-01T05:34:45.179Z,19.18
2022-09-01T05:37:16.013Z,19.14
2022-09-01T05:39:42.590Z,19.24
2022-09-01T05:42:09.762Z,19.30
2022-09-01T05:44:44.842Z,19.26
2022-09-01T05:47:21.003Z,19.18
2022-09-01T05:49:50.163Z,19.01
2022-09-01T05:52:16.953Z,18.99
2022-09-01T05:54:47.962Z,18.99
2022-09-01T05:57:33.726Z,19.01
2022-09-01T06:00:02.115Z,19.11
2022-09-01T06:02:29.350Z,19.07
2022-09-01T06:04:57.655Z,19.02
2022-09-01T06:07:30.257Z,19.05
2022-09-01T06:10:00.531Z,19.09
2022-09-01T06:12:28.933Z,19.01
2022-09-01T06:14:56.502Z,19.04
2022-09-01T06:17:26.252Z,19.11
2022-09-01T06:19:57.466Z,19.23
2022-09-01T06:22:26.662Z,19.20
2022-09-01T06:24:56.942Z,19.20
2022-09-01T06:27:29.976Z,19.24
2022-09-01T06:29:58.167Z,19.24
2022-09-01T06:32:26.000Z,19.27
2022-09-01T06:34:54.591Z,19.29
2022-09-01T06:37:22.371Z,19.34
2022-09-01T06:39:51.859Z,19.38
2022-09-01T06:42:19.895Z,19.38
2022-09-01T06:44:52.558Z,19.43
2022-09-01T06:47:19.416Z,19.47
2022-09-01T06:49:46.017Z,19.57
2022-09-01T06:52:21.064Z,19.69
2022-09-01T06:54:48.660Z,19.69
2022-09-01T07:00:18.840Z,19.87
2022-09-01T07:02:53.366Z,19.98
2022-09-01T07:06:02.697Z,20.16
2022-09-01T07:14:25.635Z,20.61
2022-09-01T07:19:54.634Z,21.03
2022-09-01T07:22:39.254Z,21.28
2022-09-01T07:25:12.959Z,21.29
2022-09-01T07:27:48.961Z,21.43
2022-09-01T07:30:24.259Z,21.57
2022-09-01T07:32:54.088Z,21.56
2022-09-01T07:35:22.484Z,21.60
2022-09-01T07:43:44.783Z,22.01
2022-09-01T07:46:40.112Z,22.37
2022-09-01T07:51:59.756Z,22.48
2022-09-01T07:54:27.464Z,22.44
2022-09-01T07:56:55.454Z,22.52
2022-09-01T07:59:23.537Z,22.43
2022-09-01T08:02:01.013Z,22.61
2022-09-01T08:04:27.584Z,22.76
2022-09-01T08:06:55.808Z,22.87
2022-09-01T08:09:37.019Z,22.87
2022-09-01T08:12:07.412Z,22.88
2022-09-01T08:14:37.946Z,23.02
2022-09-01T08:19:54.442Z,23.29
2022-09-01T08:22:38.702Z,23.05
2022-09-01T08:25:16.149Z,23.31
2022-09-01T08:27:43.332Z,23.57
2022-09-01T08:30:14.769Z,23.52
2022-09-01T08:32:43.020Z,23.49
2022-09-01T08:35:11.578Z,23.32
2022-09-01T08:37:39.376Z,23.41
2022-09-01T08:40:10.589Z,23.32
2022-09-01T08:42:49.574Z,23.32
2022-09-01T08:45:33.199Z,23.39
2022-09-01T08:49:24.264Z,23.86
2022-09-01T08:51:40.949Z,23.99
2022-09-01T08:54:31.847Z,23.93
2022-09-01T08:57:09.224Z,23.76
2022-09-01T09:00:12.673Z,23.72
2022-09-01T09:03:00.807Z,23.85
2022-09-01T09:05:38.339Z,23.84
2022-09-01T09:08:33.191Z,24.27
2022-09-01T09:11:21.662Z,24.17
2022-09-01T09:14:11.645Z,24.07
2022-09-01T09:16:53.133Z,24.12
2022-09-01T09:19:37.876Z,24.25
2022-09-01T09:22:17.288Z,24.20
2022-09-01T09:25:04.132Z,24.23
2022-09-01T09:27:42.471Z,24.25
2022-09-01T09:30:12.780Z,24.43
2022-09-01T09:33:11.735Z,24.41
2022-09-01T09:35:33.329Z,24.20
2022-09-01T09:38:28.846Z,24.18
2022-09-01T09:41:20.390Z,24.22
2022-09-01T09:44:26.906Z,24.48
2022-09-01T09:46:53.572Z,24.61
2022-09-01T09:49:36.387Z,24.95
2022-09-01T09:52:10.049Z,24.87
2022-09-01T09:54:57.115Z,24.65
2022-09-01T09:57:24.373Z,24.53
2022-09-01T10:00:01.077Z,24.78
2022-09-01T10:02:38.886Z,24.71
2022-09-01T10:05:34.013Z,24.89
2022-09-01T10:08:01.242Z,24.66
2022-09-01T10:10:57.814Z,24.55
2022-09-01T10:13:32.506Z,24.59
2022-09-01T10:16:03.816Z,24.95
2022-09-01T10:18:39.714Z,24.96
2022-09-01T10:21:16.283Z,25.17
2022-09-01T10:23:43.275Z,25.10
2022-09-01T10:26:18.755Z,24.99
2022-09-01T10:28:57.714Z,25.18
2022-09-01T10:31:29.406Z,24.98
2022-09-01T10:34:03.011Z,24.93
2022-09-01T10:36:34.481Z,24.98
2022-09-01T10:39:06.269Z,24.98
2022-09-01T10:41:53.267Z,24.77
2022-09-01T10:44:31.343Z,24.50
2022-09-01T10:47:06.449Z,24.44
2022-09-01T10:49:34.751Z,24.91
2022-09-01T10:52:05.781Z,24.97
2022-09-01T10:54:51.347Z,25.01
2022-09-01T10:57:27.042Z,24.87
2022-09-01T10:59:57.798Z,24.85
2022-09-01T11:02:36.919Z,24.74
2022-09-01T11:05:12.751Z,24.81
2022-09-01T11:10:35.138Z,25.26
2022-09-01T11:13:25.003Z,25.31
2022-09-01T11:15:51.785Z,25.02
2022-09-01T11:18:30.774Z,25.20
2022-09-01T11:21:35.888Z,25.17
2022-09-01T11:24:39.317Z,25.08
2022-09-01T11:27:09.558Z,25.10
2022-09-01T11:29:55.707Z,25.20
2022-09-01T11:32:27.591Z,25.24
2022-09-01T11:34:55.952Z,25.13
2022-09-01T11:37:27.566Z,25.16
2022-09-01T11:40:04.249Z,25.08
2022-09-01T11:42:39.524Z,25.06
2022-09-01T11:45:21.585Z,25.03
2022-09-01T11:47:52.712Z,25.06
2022-09-01T11:50:26.847Z,25.14
2022-09-01T11:53:04.791Z,25.26
2022-09-01T11:55:31.916Z,25.28
2022-09-01T11:57:59.482Z,25.23
2022-09-01T12:00:32.380Z,25.48
2022-09-01T12:03:00.497Z,25.40
2022-09-01T12:05:41.307Z,25.42
2022-09-01T12:08:24.034Z,25.33
2022-09-01T12:10:51.352Z,25.55
2022-09-01T12:13:23.335Z,25.65
2022-09-01T12:16:22.229Z,25.58
2022-09-01T12:18:51.089Z,25.62
2022-09-01T12:21:26.660Z,25.74
2022-09-01T12:23:53.708Z,26.32
2022-09-01T12:26:25.772Z,26.18
2022-09-01T12:28:53.179Z,26.23
2022-09-01T12:31:23.709Z,26.20
2022-09-01T12:33:52.210Z,26.20
2022-09-01T12:36:27.799Z,26.30
2022-09-01T12:38:56.116Z,26.41
2022-09-01T12:41:43.309Z,26.38
2022-09-01T12:44:37.373Z,26.35
2022-09-01T12:47:06.847Z,26.38
2022-09-01T12:49:48.080Z,26.37
2022-09-01T12:52:20.502Z,26.36
2022-09-01T12:54:50.129Z,26.52
2022-09-01T12:57:36.911Z,26.56
2022-09-01T13:00:19.620Z,26.68
2022-09-01T13:02:50.691Z,26.82
2022-09-01T13:05:41.838Z,26.84
2022-09-01T13:08:10.077Z,26.83
2022-09-01T13:10:40.045Z,26.93
2022-09-01T13:13:07.750Z,27.02
2022-09-01T13:15:36.486Z,26.99
2022-09-01T13:18:03.374Z,27.03
2022-09-01T13:20:30.036Z,27.15
2022-09-01T13:22:57.059Z,27.22
2022-09-01T13:25:24.117Z,27.24
2022-09-01T13:27:52.273Z,27.24
2022-09-01T13:30:28.241Z,27.21
2022-09-01T13:35:42.687Z,27.13
2022-09-01T13:38:09.743Z,26.98
2022-09-01T13:40:36.409Z,26.96
2022-09-01T13:43:04.674Z,26.85
2022-09-01T13:45:31.999Z,26.74
2022-09-01T13:48:16.222Z,26.52
2022-09-01T13:53:32.489Z,26.28
2022-09-01T13:55:59.090Z,26.15
2022-09-01T13:58:25.686Z,26.08
2022-09-01T14:00:52.684Z,26.08
2022-09-01T14:03:22.602Z,26.17
2022-09-01T14:05:49.984Z,25.99
2022-09-01T14:08:20.844Z,26.04
2022-09-01T14:10:50.727Z,26.01
2022-09-01T14:13:19.550Z,25.92
2022-09-01T14:15:47.084Z,26.04
2022-09-01T14:18:16.304Z,26.16
2022-09-01T14:20:46.224Z,26.40
2022-09-01T14:23:14.547Z,26.50
2022-09-01T14:25:50.290Z,26.25
2022-09-01T14:28:20.482Z,26.09
2022-09-01T14:30:49.331Z,26.19
2022-09-01T14:33:17.451Z,26.16
2022-09-01T14:35:47.644Z,26.05
2022-09-01T14:38:15.212Z,26.03
2022-09-01T14:40:43.426Z,26.09
2022-09-01T14:43:14.166Z,26.05
2022-09-01T14:45:45.808Z,26.02
2022-09-01T14:48:14.110Z,26.06
2022-09-01T14:50:43.889Z,26.13
2022-09-01T14:53:10.773Z,26.17
2022-09-01T14:55:37.370Z,26.27
2022-09-01T14:58:04.344Z,26.40
2022-09-01T15:00:33.402Z,26.47
2022-09-01T15:03:00.015Z,26.48
2022-09-01T15:05:26.726Z,26.58
2022-09-01T15:07:54.013Z,26.67
2022-09-01T15:10:25.816Z,26.88
2022-09-01T15:12:54.831Z,27.08
2022-09-01T15:15:21.641Z,26.98
2022-09-01T15:17:48.478Z,26.98
2022-09-01T15:20:33.743Z,27.03
2022-09-01T15:23:01.404Z,27.31
2022-09-01T15:25:28.308Z,27.20
2022-09-01T15:27:55.101Z,27.15
2022-09-01T15:30:21.825Z,27.10
2022-09-01T15:32:52.180Z,26.88
2022-09-01T15:35:19.525Z,26.96
2022-09-01T15:37:47.677Z,27.05
2022-09-01T15:40:15.228Z,26.77
2022-09-01T15:42:42.245Z,26.80
2022-09-01T15:45:14.869Z,26.61
2022-09-01T15:47:45.694Z,26.46
2022-09-01T15:50:21.152Z,26.42
2022-09-01T15:52:51.460Z,26.39
2022-09-01T15:55:21.267Z,26.42
2022-09-01T15:57:48.125Z,26.44
2022-09-01T16:00:16.127Z,26.34
2022-09-01T16:02:43.067Z,26.31
2022-09-01T16:05:10.621Z,26.25
2022-09-01T16:07:37.225Z,26.29
2022-09-01T16:10:04.439Z,26.45
2022-09-01T16:12:31.571Z,26.39
2022-09-01T16:14:58.181Z,26.36
2022-09-01T16:17:48.858Z,26.49
2022-09-01T16:20:37.325Z,26.37
2022-09-01T16:23:18.803Z,26.31
2022-09-01T16:25:48.116Z,26.34
2022-09-01T16:28:22.458Z,26.36
2022-09-01T16:30:52.451Z,26.37
2022-09-01T16:33:22.090Z,26.23
2022-09-01T16:36:15.275Z,26.23
2022-09-01T16:38:48.675Z,26.27
2022-09-01T16:41:44.396Z,26.42
2022-09-01T16:44:41.671Z,26.52
2022-09-01T16:47:33.379Z,26.48
2022-09-01T16:50:23.063Z,26.33
2022-09-01T16:53:11.606Z,26.32
2022-09-01T16:55:59.229Z,26.28
2022-09-01T16:58:53.607Z,26.18
2022-09-01T17:01:45.338Z,26.21
2022-09-01T17:04:31.925Z,26.25
2022-09-01T17:07:24.356Z,26.16
2022-09-01T17:10:16.372Z,26.04
2022-09-01T17:12:50.468Z,26.16
2022-09-01T17:15:26.388Z,26.10
2022-09-01T17:18:08.066Z,26.08
2022-09-01T17:20:40.039Z,26.21
2022-09-01T17:23:11.933Z,26.07
2022-09-01T17:25:58.809Z,26.02
2022-09-01T17:28:45.082Z,26.06
2022-09-01T17:31:14.440Z,26.04
2022-09-01T17:33:49.437Z,26.01
2022-09-01T17:36:30.885Z,25.92
2022-09-01T17:39:32.760Z,25.77
2022-09-01T17:42:11.908Z,25.76
2022-09-01T17:44:48.040Z,25.70
2022-09-01T17:47:31.391Z,25.77
2022-09-01T17:50:00.882Z,25.62
2022-09-01T17:53:10.410Z,25.53
2022-09-01T17:56:10.111Z,25.49
2022-09-01T17:58:55.796Z,25.35
2022-09-01T18:01:27.962Z,25.37
2022-09-01T18:04:11.756Z,25.34
2022-09-01T18:06:55.230Z,25.35
2022-09-01T18:09:25.425Z,25.22
2022-09-01T18:11:59.867Z,25.17
2022-09-01T18:14:49.267Z,25.08
2022-09-01T18:17:54.533Z,25.10
2022-09-01T18:20:40.346Z,24.96
2022-09-01T18:23:10.756Z,24.84
2022-09-01T18:25:49.391Z,24.74
2022-09-01T18:28:16.032Z,24.66
2022-09-01T18:30:53.300Z,24.71
2022-09-01T18:33:22.692Z,24.64
2022-09-01T18:36:07.231Z,24.58
2022-09-01T18:38:43.868Z,24.52
2022-09-01T18:41:22.431Z,24.38
2022-09-01T18:43:48.894Z,24.36
2022-09-01T18:46:46.494Z,24.31
2022-09-01T18:49:40.029Z,24.23
2022-09-01T18:52:10.955Z,24.10
2022-09-01T18:54:37.483Z,24.16
2022-09-01T18:57:06.921Z,24.06
2022-09-01T18:59:54.821Z,23.89
2022-09-01T19:02:33.716Z,23.86
2022-09-01T19:05:15.741Z,23.79
2022-09-01T19:08:16.013Z,23.78
2022-09-01T19:10:51.612Z,23.75
2022-09-01T19:13:21.099Z,23.70
2022-09-01T19:15:50.284Z,23.62
2022-09-01T19:18:42.851Z,23.56
2022-09-01T19:21:18.268Z,23.50
2022-09-01T19:23:54.240Z,23.43
2022-09-01T19:26:25.071Z,23.41
2022-09-01T19:29:01.042Z,23.40
2022-09-01T19:31:32.410Z,23.39
2022-09-01T19:34:13.078Z,23.30
2022-09-01T19:36:49.555Z,23.21
2022-09-01T19:39:29.929Z,23.16
2022-09-01T19:42:18.530Z,23.17
2022-09-01T19:44:57.305Z,23.09
2022-09-01T19:47:36.479Z,23.06
2022-09-01T19:50:24.219Z,23.03
2022-09-01T19:53:03.141Z,22.98
2022-09-01T19:55:37.444Z,22.96
2022-09-01T19:58:16.694Z,22.88
2022-09-01T20:00:54.320Z,22.84
2022-09-01T20:03:34.639Z,22.73
2022-09-01T20:06:04.200Z,22.66
2022-09-01T20:08:43.063Z,22.68
2022-09-01T20:11:35.113Z,22.64
2022-09-01T20:14:32.904Z,22.58
2022-09-01T20:17:05.885Z,22.50
2022-09-01T20:19:41.474Z,22.38
2022-09-01T20:22:46.286Z,22.38
2022-09-01T20:25:17.820Z,22.29
2022-09-01T20:28:05.324Z,22.25
2022-09-01T20:30:41.361Z,22.27
2022-09-01T20:33:16.793Z,22.26
2022-09-01T20:36:16.015Z,22.21
2022-09-01T20:39:04.327Z,22.11
2022-09-01T20:41:42.801Z,22.04
2022-09-01T20:44:23.257Z,21.96
2022-09-01T20:46:52.508Z,21.90
2022-09-01T20:49:19.176Z,21.78
2022-09-01T20:52:02.574Z,21.82
2022-09-01T20:55:01.726Z,21.77
2022-09-01T20:57:47.029Z,21.78
2022-09-01T21:00:21.654Z,21.73
2022-09-01T21:03:34.083Z,21.69
2022-09-01T21:06:13.484Z,21.66
2022-09-01T21:08:53.132Z,21.67
2022-09-01T21:11:22.368Z,21.66
2022-09-01T21:14:03.667Z,21.66
2022-09-01T21:16:48.290Z,21.68
2022-09-01T21:19:17.993Z,21.70
2022-09-01T21:22:07.560Z,21.68
2022-09-01T21:24:35.314Z,21.65
2022-09-01T21:27:07.211Z,21.65
2022-09-01T21:29:46.870Z,21.60
2022-09-01T21:32:15.906Z,21.60
2022-09-01T21:34:44.305Z,21.59
2022-09-01T21:37:11.504Z,21.58
2022-09-01T21:39:38.273Z,21.54
2022-09-01T21:42:07.205Z,21.52
2022-09-01T21:44:34.309Z,21.51
2022-09-01T21:47:02.850Z,21.51
2022-09-01T21:49:29.476Z,21.50
2022-09-01T21:51:59.780Z,21.47
2022-09-01T21:54:26.432Z,21.41
2022-09-01T21:56:53.375Z,21.46
2022-09-01T21:59:20.716Z,21.49
2022-09-01T22:01:47.789Z,21.49
2022-09-01T22:04:17.227Z,21.50
2022-09-01T22:06:45.647Z,21.48
2022-09-01T22:09:21.360Z,21.44
2022-09-01T22:11:50.548Z,21.40
2022-09-01T22:14:18.937Z,21.33
2022-09-01T22:16:46.097Z,21.38
2022-09-01T22:19:12.988Z,21.36
2022-09-01T22:21:40.075Z,21.35
2022-09-01T22:24:07.566Z,21.25
2022-09-01T22:26:35.064Z,21.27
2022-09-01T22:29:04.385Z,21.20
2022-09-01T22:31:32.461Z,21.26
2022-09-01T22:34:00.286Z,21.18
2022-09-01T22:36:33.450Z,21.21
2022-09-01T22:39:00.866Z,21.19
2022-09-01T22:41:29.889Z,21.16
2022-09-01T22:43:59.320Z,21.19
2022-09-01T22:46:28.390Z,21.09
2022-09-01T22:48:56.551Z,21.07
2022-09-01T22:51:23.097Z,21.04
2022-09-01T22:53:50.093Z,21.09
2022-09-01T22:56:21.828Z,21.05
2022-09-01T22:58:49.977Z,21.07
2022-09-01T23:01:20.825Z,21.01
2022-09-01T23:03:47.552Z,21.12
2022-09-01T23:06:27.377Z,21.07
2022-09-01T23:08:56.861Z,20.95
2022-09-01T23:11:23.896Z,20.95
2022-09-01T23:13:50.756Z,21.08
2022-09-01T23:16:20.534Z,21.01
2022-09-01T23:18:48.624Z,20.95
2022-09-01T23:21:18.270Z,20.94
2022-09-01T23:23:45.272Z,20.95
2022-09-01T23:26:13.876Z,20.89
2022-09-01T23:28:42.536Z,20.80
2022-09-01T23:31:11.820Z,20.60
2022-09-01T23:33:38.363Z,20.47
2022-09-01T23:36:11.274Z,20.51
2022-09-01T23:38:38.279Z,20.65
2022-09-01T23:41:08.335Z,20.74
2022-09-01T23:43:35.135Z,20.75
2022-09-01T23:46:01.967Z,20.75
2022-09-01T23:48:29.189Z,20.82
2022-09-01T23:51:05.972Z,20.67
2022-09-01T23:53:34.969Z,20.69
2022-09-01T23:56:03.865Z,20.76
2022-09-01T23:58:31.912Z,20.64
